sensor_id;sensor_type;location;lat;lon;timestamp;P1;durP1;ratioP1;P2;durP2;ratioP2
4462;SDS011;2244;50.200;8.220;2024-03-02T00:02:01;46.50;;;18.60;;
4462;SDS011;2244;50.200;8.220;2024-03-02T00:04:29;41.67;;;18.57;;
4462;SDS011;2244;50.200;8.220;2024-03-02T00:06:57;39.07;;;17.50;;
4462;SDS011;2244;50.200;8.220;2024-03-02T00:09:25;39.00;;;16.77;;
4462;SDS011;2244;50.200;8.220;2024-03-02T00:11:52;40.00;;;16.17;;
4462;SDS011;2244;50.200;8.220;2024-03-02T00:14:20;36.43;;;16.60;;
4462;SDS011;2244;50.200;8.220;2024-03-02T00:16:48;37.33;;;16.23;;
4462;SDS011;2244;50.200;8.220;2024-03-02T00:19:15;38.50;;;16.53;;
4462;SDS011;2244;50.200;8.220;2024-03-02T00:21:43;37.90;;;18.03;;
4462;SDS011;2244;50.200;8.220;2024-03-02T00:26:57;36.90;;;16.30;;
4462;SDS011;2244;50.200;8.220;2024-03-02T00:29:25;41.83;;;16.50;;
4462;SDS011;2244;50.200;8.220;2024-03-02T00:31:52;39.00;;;16.00;;
4462;SDS011;2244;50.200;8.220;2024-03-02T00:34:21;35.17;;;15.80;;
4462;SDS011;2244;50.200;8.220;2024-03-02T00:36:49;39.83;;;16.93;;
4462;SDS011;2244;50.200;8.220;2024-03-02T00:39:17;37.23;;;16.00;;
4462;SDS011;2244;50.200;8.220;2024-03-02T00:41:45;39.97;;;16.47;;
4462;SDS011;2244;50.200;8.220;2024-03-02T00:44:14;36.60;;;16.47;;
4462;SDS011;2244;50.200;8.220;2024-03-02T00:46:42;39.47;;;17.70;;
4462;SDS011;2244;50.200;8.220;2024-03-02T00:49:22;40.67;;;18.43;;
4462;SDS011;2244;50.200;8.220;2024-03-02T00:51:51;40.63;;;17.80;;
4462;SDS011;2244;50.200;8.220;2024-03-02T00:54:23;40.87;;;18.73;;
4462;SDS011;2244;50.200;8.220;2024-03-02T00:56:56;39.57;;;18.00;;
4462;SDS011;2244;50.200;8.220;2024-03-02T00:59:22;41.70;;;19.17;;
4462;SDS011;2244;50.200;8.220;2024-03-02T01:01:50;39.30;;;16.40;;
4462;SDS011;2244;50.200;8.220;2024-03-02T01:04:18;37.60;;;16.90;;
4462;SDS011;2244;50.200;8.220;2024-03-02T01:06:46;38.23;;;17.90;;
4462;SDS011;2244;50.200;8.220;2024-03-02T01:09:13;39.40;;;18.50;;
4462;SDS011;2244;50.200;8.220;2024-03-02T01:11:41;38.03;;;18.13;;
4462;SDS011;2244;50.200;8.220;2024-03-02T01:14:08;40.20;;;17.90;;
4462;SDS011;2244;50.200;8.220;2024-03-02T01:16:36;37.73;;;16.70;;
4462;SDS011;2244;50.200;8.220;2024-03-02T01:19:03;37.43;;;16.40;;
4462;SDS011;2244;50.200;8.220;2024-03-02T01:21:31;36.60;;;14.67;;
4462;SDS011;2244;50.200;8.220;2024-03-02T01:23:58;36.23;;;14.90;;
4462;SDS011;2244;50.200;8.220;2024-03-02T01:26:26;35.13;;;14.80;;
4462;SDS011;2244;50.200;8.220;2024-03-02T01:28:53;35.07;;;14.60;;
4462;SDS011;2244;50.200;8.220;2024-03-02T01:31:21;35.27;;;15.07;;
4462;SDS011;2244;50.200;8.220;2024-03-02T01:33:48;37.70;;;16.00;;
4462;SDS011;2244;50.200;8.220;2024-03-02T01:36:16;38.60;;;16.53;;
4462;SDS011;2244;50.200;8.220;2024-03-02T01:38:43;34.20;;;14.57;;
4462;SDS011;2244;50.200;8.220;2024-03-02T01:41:11;37.40;;;14.90;;
4462;SDS011;2244;50.200;8.220;2024-03-02T01:43:38;33.23;;;14.67;;
4462;SDS011;2244;50.200;8.220;2024-03-02T01:46:07;35.97;;;15.70;;
4462;SDS011;2244;50.200;8.220;2024-03-02T01:48:37;35.10;;;15.30;;
4462;SDS011;2244;50.200;8.220;2024-03-02T01:51:04;36.07;;;14.20;;
4462;SDS011;2244;50.200;8.220;2024-03-02T01:53:34;36.07;;;15.67;;
4462;SDS011;2244;50.200;8.220;2024-03-02T01:56:01;36.03;;;14.43;;
4462;SDS011;2244;50.200;8.220;2024-03-02T01:58:29;36.53;;;15.63;;
4462;SDS011;2244;50.200;8.220;2024-03-02T02:00:56;39.40;;;16.50;;
4462;SDS011;2244;50.200;8.220;2024-03-02T02:03:24;39.33;;;15.93;;
4462;SDS011;2244;50.200;8.220;2024-03-02T02:05:51;39.90;;;16.13;;
4462;SDS011;2244;50.200;8.220;2024-03-02T02:08:19;36.27;;;15.37;;
4462;SDS011;2244;50.200;8.220;2024-03-02T02:10:46;34.80;;;15.10;;
4462;SDS011;2244;50.200;8.220;2024-03-02T02:13:14;34.90;;;14.00;;
4462;SDS011;2244;50.200;8.220;2024-03-02T02:15:41;36.00;;;15.50;;
4462;SDS011;2244;50.200;8.220;2024-03-02T02:18:09;35.57;;;15.07;;
4462;SDS011;2244;50.200;8.220;2024-03-02T02:20:36;34.80;;;14.20;;
4462;SDS011;2244;50.200;8.220;2024-03-02T02:23:04;34.10;;;14.23;;
4462;SDS011;2244;50.200;8.220;2024-03-02T02:25:36;35.03;;;15.10;;
4462;SDS011;2244;50.200;8.220;2024-03-02T02:28:04;36.87;;;15.23;;
4462;SDS011;2244;50.200;8.220;2024-03-02T02:30:31;35.93;;;14.40;;
4462;SDS011;2244;50.200;8.220;2024-03-02T02:32:59;34.63;;;15.00;;
4462;SDS011;2244;50.200;8.220;2024-03-02T02:35:27;34.97;;;15.00;;
4462;SDS011;2244;50.200;8.220;2024-03-02T02:37:57;36.60;;;15.33;;
4462;SDS011;2244;50.200;8.220;2024-03-02T02:40:28;37.23;;;15.60;;
4462;SDS011;2244;50.200;8.220;2024-03-02T02:42:58;37.20;;;15.30;;
4462;SDS011;2244;50.200;8.220;2024-03-02T02:45:28;38.70;;;15.07;;
4462;SDS011;2244;50.200;8.220;2024-03-02T02:47:56;35.70;;;16.20;;
4462;SDS011;2244;50.200;8.220;2024-03-02T02:50:23;37.63;;;16.37;;
4462;SDS011;2244;50.200;8.220;2024-03-02T02:52:51;36.10;;;15.40;;
4462;SDS011;2244;50.200;8.220;2024-03-02T02:55:18;35.23;;;15.53;;
4462;SDS011;2244;50.200;8.220;2024-03-02T02:57:47;36.57;;;14.70;;
4462;SDS011;2244;50.200;8.220;2024-03-02T03:00:15;36.23;;;15.27;;
4462;SDS011;2244;50.200;8.220;2024-03-02T03:02:45;36.97;;;16.07;;
4462;SDS011;2244;50.200;8.220;2024-03-02T03:05:14;36.57;;;15.60;;
4462;SDS011;2244;50.200;8.220;2024-03-02T03:07:41;39.13;;;16.63;;
4462;SDS011;2244;50.200;8.220;2024-03-02T03:10:10;39.97;;;15.57;;
4462;SDS011;2244;50.200;8.220;2024-03-02T03:12:40;39.33;;;16.50;;
4462;SDS011;2244;50.200;8.220;2024-03-02T03:15:09;39.63;;;16.53;;
4462;SDS011;2244;50.200;8.220;2024-03-02T03:17:37;35.03;;;15.13;;
4462;SDS011;2244;50.200;8.220;2024-03-02T03:20:05;37.13;;;15.37;;
4462;SDS011;2244;50.200;8.220;2024-03-02T03:22:35;38.00;;;14.00;;
4462;SDS011;2244;50.200;8.220;2024-03-02T03:25:03;33.57;;;13.60;;
4462;SDS011;2244;50.200;8.220;2024-03-02T03:27:31;35.20;;;13.90;;
4462;SDS011;2244;50.200;8.220;2024-03-02T03:29:59;36.00;;;13.80;;
4462;SDS011;2244;50.200;8.220;2024-03-02T03:32:26;33.63;;;13.10;;
4462;SDS011;2244;50.200;8.220;2024-03-02T03:34:54;36.30;;;14.30;;
4462;SDS011;2244;50.200;8.220;2024-03-02T03:37:21;35.90;;;14.00;;
4462;SDS011;2244;50.200;8.220;2024-03-02T03:39:49;34.10;;;12.23;;
4462;SDS011;2244;50.200;8.220;2024-03-02T03:42:16;37.50;;;15.33;;
4462;SDS011;2244;50.200;8.220;2024-03-02T03:44:44;34.83;;;14.70;;
4462;SDS011;2244;50.200;8.220;2024-03-02T03:47:11;34.50;;;13.20;;
4462;SDS011;2244;50.200;8.220;2024-03-02T03:49:39;35.93;;;14.37;;
4462;SDS011;2244;50.200;8.220;2024-03-02T03:52:06;33.13;;;13.27;;
4462;SDS011;2244;50.200;8.220;2024-03-02T03:54:35;35.13;;;13.40;;
4462;SDS011;2244;50.200;8.220;2024-03-02T03:57:04;35.57;;;13.20;;
4462;SDS011;2244;50.200;8.220;2024-03-02T03:59:32;32.37;;;12.40;;
4462;SDS011;2244;50.200;8.220;2024-03-02T04:01:59;34.00;;;12.13;;
4462;SDS011;2244;50.200;8.220;2024-03-02T04:04:27;32.17;;;11.87;;
4462;SDS011;2244;50.200;8.220;2024-03-02T04:06:54;29.77;;;11.30;;
4462;SDS011;2244;50.200;8.220;2024-03-02T04:09:23;31.77;;;11.17;;
4462;SDS011;2244;50.200;8.220;2024-03-02T04:11:50;33.17;;;11.67;;
4462;SDS011;2244;50.200;8.220;2024-03-02T04:14:18;33.20;;;13.10;;
4462;SDS011;2244;50.200;8.220;2024-03-02T04:16:45;31.17;;;11.53;;
4462;SDS011;2244;50.200;8.220;2024-03-02T04:19:12;33.87;;;12.30;;
4462;SDS011;2244;50.200;8.220;2024-03-02T04:21:40;32.97;;;11.97;;
4462;SDS011;2244;50.200;8.220;2024-03-02T04:24:08;35.47;;;11.57;;
4462;SDS011;2244;50.200;8.220;2024-03-02T04:26:35;34.37;;;12.47;;
4462;SDS011;2244;50.200;8.220;2024-03-02T04:29:03;30.90;;;11.00;;
4462;SDS011;2244;50.200;8.220;2024-03-02T04:31:30;29.90;;;10.50;;
4462;SDS011;2244;50.200;8.220;2024-03-02T04:33:57;29.90;;;10.83;;
4462;SDS011;2244;50.200;8.220;2024-03-02T04:36:25;30.37;;;10.53;;
4462;SDS011;2244;50.200;8.220;2024-03-02T04:38:54;30.97;;;10.47;;
4462;SDS011;2244;50.200;8.220;2024-03-02T04:41:21;30.43;;;10.97;;
4462;SDS011;2244;50.200;8.220;2024-03-02T04:43:49;31.40;;;10.20;;
4462;SDS011;2244;50.200;8.220;2024-03-02T04:46:16;29.20;;;10.20;;
4462;SDS011;2244;50.200;8.220;2024-03-02T04:48:43;30.10;;;10.80;;
4462;SDS011;2244;50.200;8.220;2024-03-02T04:51:11;29.13;;;9.90;;
4462;SDS011;2244;50.200;8.220;2024-03-02T04:53:40;29.83;;;10.57;;
4462;SDS011;2244;50.200;8.220;2024-03-02T04:56:07;29.83;;;10.13;;
4462;SDS011;2244;50.200;8.220;2024-03-02T04:58:52;27.97;;;9.00;;
4462;SDS011;2244;50.200;8.220;2024-03-02T05:01:20;30.27;;;10.33;;
4462;SDS011;2244;50.200;8.220;2024-03-02T05:03:48;30.63;;;10.17;;
4462;SDS011;2244;50.200;8.220;2024-03-02T05:06:15;30.00;;;10.03;;
4462;SDS011;2244;50.200;8.220;2024-03-02T05:08:43;28.97;;;9.67;;
4462;SDS011;2244;50.200;8.220;2024-03-02T05:11:11;29.70;;;10.00;;
4462;SDS011;2244;50.200;8.220;2024-03-02T05:13:56;27.93;;;9.60;;
4462;SDS011;2244;50.200;8.220;2024-03-02T05:16:24;29.10;;;9.50;;
4462;SDS011;2244;50.200;8.220;2024-03-02T05:18:52;29.10;;;10.40;;
4462;SDS011;2244;50.200;8.220;2024-03-02T05:21:20;29.53;;;9.83;;
4462;SDS011;2244;50.200;8.220;2024-03-02T05:23:47;31.47;;;10.80;;
4462;SDS011;2244;50.200;8.220;2024-03-02T05:26:15;31.60;;;11.30;;
4462;SDS011;2244;50.200;8.220;2024-03-02T05:28:43;29.17;;;9.53;;
4462;SDS011;2244;50.200;8.220;2024-03-02T05:31:10;30.40;;;10.13;;
4462;SDS011;2244;50.200;8.220;2024-03-02T05:33:38;30.70;;;11.10;;
4462;SDS011;2244;50.200;8.220;2024-03-02T05:36:06;30.67;;;11.13;;
4462;SDS011;2244;50.200;8.220;2024-03-02T05:38:36;29.70;;;11.00;;
4462;SDS011;2244;50.200;8.220;2024-03-02T05:41:04;30.73;;;10.70;;
4462;SDS011;2244;50.200;8.220;2024-03-02T05:43:31;32.87;;;11.10;;
4462;SDS011;2244;50.200;8.220;2024-03-02T05:45:59;29.50;;;10.20;;
4462;SDS011;2244;50.200;8.220;2024-03-02T05:48:26;32.30;;;11.60;;
4462;SDS011;2244;50.200;8.220;2024-03-02T05:50:54;31.37;;;11.03;;
4462;SDS011;2244;50.200;8.220;2024-03-02T05:53:21;29.70;;;10.60;;
4462;SDS011;2244;50.200;8.220;2024-03-02T05:55:49;31.73;;;10.30;;
4462;SDS011;2244;50.200;8.220;2024-03-02T05:58:18;29.87;;;9.70;;
4462;SDS011;2244;50.200;8.220;2024-03-02T06:01:03;29.37;;;10.50;;
4462;SDS011;2244;50.200;8.220;2024-03-02T06:03:32;28.60;;;10.10;;
4462;SDS011;2244;50.200;8.220;2024-03-02T06:05:59;32.63;;;10.30;;
4462;SDS011;2244;50.200;8.220;2024-03-02T06:08:27;29.90;;;9.40;;
4462;SDS011;2244;50.200;8.220;2024-03-02T06:10:54;28.50;;;10.10;;
4462;SDS011;2244;50.200;8.220;2024-03-02T06:13:23;29.27;;;8.90;;
4462;SDS011;2244;50.200;8.220;2024-03-02T06:15:52;27.03;;;9.00;;
4462;SDS011;2244;50.200;8.220;2024-03-02T06:18:19;30.80;;;9.57;;
4462;SDS011;2244;50.200;8.220;2024-03-02T06:20:47;28.83;;;8.80;;
4462;SDS011;2244;50.200;8.220;2024-03-02T06:23:15;30.00;;;9.10;;
4462;SDS011;2244;50.200;8.220;2024-03-02T06:25:43;29.00;;;9.20;;
4462;SDS011;2244;50.200;8.220;2024-03-02T06:28:11;26.13;;;7.77;;
4462;SDS011;2244;50.200;8.220;2024-03-02T06:30:38;25.73;;;7.80;;
4462;SDS011;2244;50.200;8.220;2024-03-02T06:35:36;27.80;;;8.53;;
4462;SDS011;2244;50.200;8.220;2024-03-02T06:38:04;31.80;;;8.10;;
4462;SDS011;2244;50.200;8.220;2024-03-02T06:40:32;27.00;;;8.13;;
4462;SDS011;2244;50.200;8.220;2024-03-02T06:43:00;27.03;;;8.10;;
4462;SDS011;2244;50.200;8.220;2024-03-02T06:45:28;28.20;;;9.10;;
4462;SDS011;2244;50.200;8.220;2024-03-02T06:47:57;27.30;;;8.40;;
4462;SDS011;2244;50.200;8.220;2024-03-02T06:50:24;27.17;;;7.97;;
4462;SDS011;2244;50.200;8.220;2024-03-02T06:52:52;26.40;;;7.73;;
4462;SDS011;2244;50.200;8.220;2024-03-02T06:55:19;28.03;;;8.07;;
4462;SDS011;2244;50.200;8.220;2024-03-02T06:57:47;25.00;;;6.77;;
4462;SDS011;2244;50.200;8.220;2024-03-02T07:00:14;26.60;;;7.13;;
4462;SDS011;2244;50.200;8.220;2024-03-02T07:02:44;33.20;;;7.87;;
4462;SDS011;2244;50.200;8.220;2024-03-02T07:05:12;26.60;;;7.57;;
4462;SDS011;2244;50.200;8.220;2024-03-02T07:07:39;25.87;;;6.97;;
4462;SDS011;2244;50.200;8.220;2024-03-02T07:10:12;26.50;;;7.37;;
4462;SDS011;2244;50.200;8.220;2024-03-02T07:12:36;25.60;;;6.73;;
4462;SDS011;2244;50.200;8.220;2024-03-02T07:15:03;26.23;;;6.73;;
4462;SDS011;2244;50.200;8.220;2024-03-02T07:17:33;26.30;;;6.90;;
4462;SDS011;2244;50.200;8.220;2024-03-02T07:23:23;26.53;;;6.07;;
4462;SDS011;2244;50.200;8.220;2024-03-02T07:25:52;24.50;;;5.97;;
4462;SDS011;2244;50.200;8.220;2024-03-02T07:28:23;24.77;;;5.47;;
4462;SDS011;2244;50.200;8.220;2024-03-02T07:31:00;24.67;;;5.97;;
4462;SDS011;2244;50.200;8.220;2024-03-02T07:33:29;25.07;;;5.77;;
4462;SDS011;2244;50.200;8.220;2024-03-02T07:35:56;23.47;;;5.17;;
4462;SDS011;2244;50.200;8.220;2024-03-02T07:38:28;25.00;;;5.20;;
4462;SDS011;2244;50.200;8.220;2024-03-02T07:40:55;25.90;;;5.57;;
4462;SDS011;2244;50.200;8.220;2024-03-02T07:43:23;26.27;;;5.80;;
4462;SDS011;2244;50.200;8.220;2024-03-02T07:45:50;24.37;;;5.33;;
4462;SDS011;2244;50.200;8.220;2024-03-02T07:48:19;23.97;;;5.00;;
4462;SDS011;2244;50.200;8.220;2024-03-02T07:50:47;22.60;;;4.43;;
4462;SDS011;2244;50.200;8.220;2024-03-02T07:53:14;23.30;;;5.03;;
4462;SDS011;2244;50.200;8.220;2024-03-02T07:55:42;23.60;;;4.43;;
4462;SDS011;2244;50.200;8.220;2024-03-02T07:58:10;23.47;;;4.90;;
4462;SDS011;2244;50.200;8.220;2024-03-02T08:00:42;23.20;;;4.70;;
4462;SDS011;2244;50.200;8.220;2024-03-02T08:03:07;25.10;;;5.80;;
4462;SDS011;2244;50.200;8.220;2024-03-02T08:05:36;23.40;;;5.27;;
4462;SDS011;2244;50.200;8.220;2024-03-02T08:08:04;24.37;;;5.53;;
4462;SDS011;2244;50.200;8.220;2024-03-02T08:10:33;23.77;;;4.70;;
4462;SDS011;2244;50.200;8.220;2024-03-02T08:13:00;23.60;;;5.37;;
4462;SDS011;2244;50.200;8.220;2024-03-02T08:15:28;24.20;;;5.70;;
4462;SDS011;2244;50.200;8.220;2024-03-02T08:17:55;23.30;;;5.20;;
4462;SDS011;2244;50.200;8.220;2024-03-02T08:20:23;25.50;;;4.67;;
4462;SDS011;2244;50.200;8.220;2024-03-02T08:22:51;24.67;;;5.17;;
4462;SDS011;2244;50.200;8.220;2024-03-02T08:25:20;24.23;;;5.17;;
4462;SDS011;2244;50.200;8.220;2024-03-02T08:27:48;24.60;;;4.60;;
4462;SDS011;2244;50.200;8.220;2024-03-02T08:30:16;24.87;;;5.10;;
4462;SDS011;2244;50.200;8.220;2024-03-02T08:32:44;23.93;;;4.60;;
4462;SDS011;2244;50.200;8.220;2024-03-02T08:35:13;23.07;;;4.63;;
4462;SDS011;2244;50.200;8.220;2024-03-02T08:37:41;24.27;;;5.00;;
4462;SDS011;2244;50.200;8.220;2024-03-02T08:40:10;24.67;;;4.17;;
4462;SDS011;2244;50.200;8.220;2024-03-02T08:42:39;25.30;;;3.60;;
4462;SDS011;2244;50.200;8.220;2024-03-02T08:45:07;23.40;;;4.17;;
4462;SDS011;2244;50.200;8.220;2024-03-02T08:47:34;23.90;;;4.67;;
4462;SDS011;2244;50.200;8.220;2024-03-02T08:50:08;23.00;;;4.00;;
4462;SDS011;2244;50.200;8.220;2024-03-02T08:52:35;24.77;;;4.40;;
4462;SDS011;2244;50.200;8.220;2024-03-02T08:55:03;23.47;;;4.10;;
4462;SDS011;2244;50.200;8.220;2024-03-02T08:57:31;24.00;;;4.10;;
4462;SDS011;2244;50.200;8.220;2024-03-02T08:59:59;22.70;;;3.43;;
4462;SDS011;2244;50.200;8.220;2024-03-02T09:02:26;24.80;;;4.67;;
4462;SDS011;2244;50.200;8.220;2024-03-02T09:04:54;25.03;;;4.90;;
4462;SDS011;2244;50.200;8.220;2024-03-02T09:07:21;24.47;;;4.30;;
4462;SDS011;2244;50.200;8.220;2024-03-02T09:09:49;24.07;;;4.30;;
4462;SDS011;2244;50.200;8.220;2024-03-02T09:12:16;25.50;;;4.27;;
4462;SDS011;2244;50.200;8.220;2024-03-02T09:14:44;23.70;;;3.60;;
4462;SDS011;2244;50.200;8.220;2024-03-02T09:17:12;23.70;;;3.90;;
4462;SDS011;2244;50.200;8.220;2024-03-02T09:19:40;22.87;;;3.67;;
4462;SDS011;2244;50.200;8.220;2024-03-02T09:22:07;24.87;;;4.50;;
4462;SDS011;2244;50.200;8.220;2024-03-02T09:24:36;25.07;;;4.67;;
4462;SDS011;2244;50.200;8.220;2024-03-02T09:27:03;23.43;;;3.87;;
4462;SDS011;2244;50.200;8.220;2024-03-02T09:29:37;26.00;;;4.60;;
4462;SDS011;2244;50.200;8.220;2024-03-02T09:32:05;27.53;;;6.83;;
4462;SDS011;2244;50.200;8.220;2024-03-02T09:34:33;26.60;;;5.80;;
4462;SDS011;2244;50.200;8.220;2024-03-02T09:37:00;24.30;;;4.90;;
4462;SDS011;2244;50.200;8.220;2024-03-02T09:39:28;25.93;;;5.20;;
4462;SDS011;2244;50.200;8.220;2024-03-02T09:41:56;24.97;;;5.17;;
4462;SDS011;2244;50.200;8.220;2024-03-02T09:44:23;25.20;;;5.07;;
4462;SDS011;2244;50.200;8.220;2024-03-02T09:46:52;24.43;;;4.17;;
4462;SDS011;2244;50.200;8.220;2024-03-02T09:49:25;25.20;;;4.70;;
4462;SDS011;2244;50.200;8.220;2024-03-02T09:51:53;25.07;;;5.00;;
4462;SDS011;2244;50.200;8.220;2024-03-02T09:54:21;26.03;;;4.93;;
4462;SDS011;2244;50.200;8.220;2024-03-02T09:56:50;24.60;;;4.77;;
4462;SDS011;2244;50.200;8.220;2024-03-02T09:59:18;25.37;;;4.97;;
4462;SDS011;2244;50.200;8.220;2024-03-02T10:01:57;26.70;;;4.70;;
4462;SDS011;2244;50.200;8.220;2024-03-02T10:04:28;24.30;;;4.33;;
4462;SDS011;2244;50.200;8.220;2024-03-02T10:07:15;24.87;;;4.57;;
4462;SDS011;2244;50.200;8.220;2024-03-02T10:09:28;26.90;;;4.70;;
4462;SDS011;2244;50.200;8.220;2024-03-02T10:12:07;27.70;;;4.23;;
4462;SDS011;2244;50.200;8.220;2024-03-02T10:14:30;27.10;;;6.33;;
4462;SDS011;2244;50.200;8.220;2024-03-02T10:17:04;26.13;;;5.80;;
4462;SDS011;2244;50.200;8.220;2024-03-02T10:19:32;28.20;;;5.70;;
4462;SDS011;2244;50.200;8.220;2024-03-02T10:22:02;26.30;;;5.53;;
4462;SDS011;2244;50.200;8.220;2024-03-02T10:24:37;26.30;;;5.77;;
4462;SDS011;2244;50.200;8.220;2024-03-02T10:27:15;26.30;;;5.80;;
4462;SDS011;2244;50.200;8.220;2024-03-02T10:29:38;26.43;;;5.63;;
4462;SDS011;2244;50.200;8.220;2024-03-02T10:32:10;25.97;;;5.63;;
4462;SDS011;2244;50.200;8.220;2024-03-02T10:34:40;26.60;;;5.13;;
4462;SDS011;2244;50.200;8.220;2024-03-02T10:37:08;27.80;;;5.90;;
4462;SDS011;2244;50.200;8.220;2024-03-02T10:39:36;26.63;;;5.83;;
4462;SDS011;2244;50.200;8.220;2024-03-02T10:42:04;31.20;;;6.03;;
4462;SDS011;2244;50.200;8.220;2024-03-02T10:44:32;27.90;;;6.33;;
4462;SDS011;2244;50.200;8.220;2024-03-02T10:47:01;26.50;;;6.30;;
4462;SDS011;2244;50.200;8.220;2024-03-02T10:49:30;27.57;;;5.77;;
4462;SDS011;2244;50.200;8.220;2024-03-02T10:51:58;28.00;;;7.10;;
4462;SDS011;2244;50.200;8.220;2024-03-02T10:54:26;27.40;;;6.80;;
4462;SDS011;2244;50.200;8.220;2024-03-02T10:56:58;28.27;;;6.60;;
4462;SDS011;2244;50.200;8.220;2024-03-02T10:59:31;26.20;;;6.23;;
4462;SDS011;2244;50.200;8.220;2024-03-02T11:01:58;27.60;;;5.93;;
4462;SDS011;2244;50.200;8.220;2024-03-02T11:04:28;26.80;;;5.87;;
4462;SDS011;2244;50.200;8.220;2024-03-02T11:07:06;26.27;;;5.60;;
4462;SDS011;2244;50.200;8.220;2024-03-02T11:09:25;25.80;;;5.60;;
4462;SDS011;2244;50.200;8.220;2024-03-02T11:12:02;27.90;;;7.50;;
4462;SDS011;2244;50.200;8.220;2024-03-02T11:14:25;32.20;;;9.83;;
4462;SDS011;2244;50.200;8.220;2024-03-02T11:16:53;52.23;;;38.43;;
4462;SDS011;2244;50.200;8.220;2024-03-02T11:19:20;26.60;;;5.37;;
4462;SDS011;2244;50.200;8.220;2024-03-02T11:21:49;26.17;;;4.87;;
4462;SDS011;2244;50.200;8.220;2024-03-02T11:26:51;25.63;;;4.70;;
4462;SDS011;2244;50.200;8.220;2024-03-02T11:32:12;25.87;;;5.07;;
4462;SDS011;2244;50.200;8.220;2024-03-02T11:34:35;25.50;;;4.93;;
4462;SDS011;2244;50.200;8.220;2024-03-02T11:37:03;27.33;;;5.30;;
4462;SDS011;2244;50.200;8.220;2024-03-02T11:39:31;31.50;;;9.50;;
4462;SDS011;2244;50.200;8.220;2024-03-02T11:41:58;25.20;;;5.40;;
4462;SDS011;2244;50.200;8.220;2024-03-02T11:44:30;26.77;;;5.00;;
4462;SDS011;2244;50.200;8.220;2024-03-02T11:46:59;27.33;;;4.40;;
4462;SDS011;2244;50.200;8.220;2024-03-02T11:52:09;24.07;;;4.00;;
4462;SDS011;2244;50.200;8.220;2024-03-02T11:54:38;26.53;;;7.17;;
4462;SDS011;2244;50.200;8.220;2024-03-02T11:57:07;33.87;;;13.13;;
4462;SDS011;2244;50.200;8.220;2024-03-02T11:59:35;24.43;;;3.97;;
4462;SDS011;2244;50.200;8.220;2024-03-02T12:02:02;25.33;;;5.60;;
4462;SDS011;2244;50.200;8.220;2024-03-02T12:04:30;25.00;;;4.10;;
4462;SDS011;2244;50.200;8.220;2024-03-02T12:06:58;24.77;;;4.50;;
4462;SDS011;2244;50.200;8.220;2024-03-02T12:09:29;24.90;;;4.40;;
4462;SDS011;2244;50.200;8.220;2024-03-02T12:12:06;25.50;;;4.33;;
4462;SDS011;2244;50.200;8.220;2024-03-02T12:14:36;25.47;;;4.10;;
4462;SDS011;2244;50.200;8.220;2024-03-02T12:17:08;24.77;;;3.30;;
4462;SDS011;2244;50.200;8.220;2024-03-02T12:19:33;23.90;;;3.13;;
4462;SDS011;2244;50.200;8.220;2024-03-02T12:22:00;26.90;;;3.67;;
4462;SDS011;2244;50.200;8.220;2024-03-02T12:24:30;29.50;;;3.83;;
4462;SDS011;2244;50.200;8.220;2024-03-02T12:26:57;25.90;;;3.93;;
4462;SDS011;2244;50.200;8.220;2024-03-02T12:29:25;24.73;;;3.93;;
4462;SDS011;2244;50.200;8.220;2024-03-02T12:31:52;23.70;;;3.77;;
4462;SDS011;2244;50.200;8.220;2024-03-02T12:34:20;24.17;;;4.10;;
4462;SDS011;2244;50.200;8.220;2024-03-02T12:36:48;24.00;;;4.00;;
4462;SDS011;2244;50.200;8.220;2024-03-02T12:39:18;24.77;;;3.97;;
4462;SDS011;2244;50.200;8.220;2024-03-02T12:41:46;25.20;;;5.10;;
4462;SDS011;2244;50.200;8.220;2024-03-02T12:44:13;25.30;;;5.40;;
4462;SDS011;2244;50.200;8.220;2024-03-02T12:46:41;26.50;;;5.60;;
4462;SDS011;2244;50.200;8.220;2024-03-02T12:49:09;24.00;;;4.17;;
4462;SDS011;2244;50.200;8.220;2024-03-02T12:51:42;27.80;;;5.80;;
4462;SDS011;2244;50.200;8.220;2024-03-02T12:54:09;28.00;;;5.70;;
4462;SDS011;2244;50.200;8.220;2024-03-02T12:56:37;30.50;;;5.43;;
4462;SDS011;2244;50.200;8.220;2024-03-02T12:59:05;27.90;;;6.00;;
4462;SDS011;2244;50.200;8.220;2024-03-02T13:01:32;26.67;;;5.50;;
4462;SDS011;2244;50.200;8.220;2024-03-02T13:04:00;26.90;;;5.80;;
4462;SDS011;2244;50.200;8.220;2024-03-02T13:06:28;26.67;;;5.93;;
4462;SDS011;2244;50.200;8.220;2024-03-02T13:08:55;26.27;;;5.33;;
4462;SDS011;2244;50.200;8.220;2024-03-02T13:11:23;24.20;;;3.70;;
4462;SDS011;2244;50.200;8.220;2024-03-02T13:13:51;22.40;;;2.77;;
4462;SDS011;2244;50.200;8.220;2024-03-02T13:16:19;29.23;;;4.10;;
4462;SDS011;2244;50.200;8.220;2024-03-02T13:18:48;24.57;;;3.80;;
4462;SDS011;2244;50.200;8.220;2024-03-02T13:21:16;23.80;;;3.13;;
4462;SDS011;2244;50.200;8.220;2024-03-02T13:23:43;25.10;;;3.83;;
4462;SDS011;2244;50.200;8.220;2024-03-02T13:26:11;24.77;;;3.60;;
4462;SDS011;2244;50.200;8.220;2024-03-02T13:28:39;24.30;;;3.40;;
4462;SDS011;2244;50.200;8.220;2024-03-02T13:31:06;26.63;;;4.53;;
4462;SDS011;2244;50.200;8.220;2024-03-02T13:33:34;24.67;;;3.73;;
4462;SDS011;2244;50.200;8.220;2024-03-02T13:36:02;25.00;;;4.83;;
4462;SDS011;2244;50.200;8.220;2024-03-02T13:38:29;25.70;;;4.33;;
4462;SDS011;2244;50.200;8.220;2024-03-02T13:40:57;25.03;;;4.30;;
4462;SDS011;2244;50.200;8.220;2024-03-02T13:43:24;23.00;;;2.80;;
4462;SDS011;2244;50.200;8.220;2024-03-02T13:45:52;23.07;;;3.03;;
4462;SDS011;2244;50.200;8.220;2024-03-02T13:48:20;24.00;;;2.90;;
4462;SDS011;2244;50.200;8.220;2024-03-02T13:50:47;25.70;;;4.53;;
4462;SDS011;2244;50.200;8.220;2024-03-02T13:53:15;25.10;;;5.00;;
4462;SDS011;2244;50.200;8.220;2024-03-02T13:55:43;29.80;;;6.60;;
4462;SDS011;2244;50.200;8.220;2024-03-02T13:58:10;26.70;;;4.60;;
4462;SDS011;2244;50.200;8.220;2024-03-02T14:00:38;25.53;;;4.93;;
4462;SDS011;2244;50.200;8.220;2024-03-02T14:03:06;23.37;;;3.13;;
4462;SDS011;2244;50.200;8.220;2024-03-02T14:05:34;26.20;;;3.40;;
4462;SDS011;2244;50.200;8.220;2024-03-02T14:08:01;24.60;;;2.80;;
4462;SDS011;2244;50.200;8.220;2024-03-02T14:10:29;24.70;;;3.90;;
4462;SDS011;2244;50.200;8.220;2024-03-02T14:12:56;25.00;;;3.73;;
4462;SDS011;2244;50.200;8.220;2024-03-02T14:15:23;24.17;;;3.67;;
4462;SDS011;2244;50.200;8.220;2024-03-02T14:17:52;25.20;;;3.97;;
4462;SDS011;2244;50.200;8.220;2024-03-02T14:20:20;25.00;;;3.77;;
4462;SDS011;2244;50.200;8.220;2024-03-02T14:22:49;25.10;;;4.60;;
4462;SDS011;2244;50.200;8.220;2024-03-02T14:25:17;28.37;;;6.07;;
4462;SDS011;2244;50.200;8.220;2024-03-02T14:27:45;23.70;;;2.30;;
4462;SDS011;2244;50.200;8.220;2024-03-02T14:30:14;23.17;;;2.57;;
4462;SDS011;2244;50.200;8.220;2024-03-02T14:32:42;23.50;;;2.73;;
4462;SDS011;2244;50.200;8.220;2024-03-02T14:35:09;24.43;;;3.60;;
4462;SDS011;2244;50.200;8.220;2024-03-02T14:37:37;25.07;;;4.80;;
4462;SDS011;2244;50.200;8.220;2024-03-02T14:40:05;28.33;;;5.73;;
4462;SDS011;2244;50.200;8.220;2024-03-02T14:42:38;30.20;;;5.10;;
4462;SDS011;2244;50.200;8.220;2024-03-02T14:45:06;30.13;;;5.30;;
4462;SDS011;2244;50.200;8.220;2024-03-02T14:47:34;26.47;;;5.63;;
4462;SDS011;2244;50.200;8.220;2024-03-02T14:50:01;26.60;;;5.80;;
4462;SDS011;2244;50.200;8.220;2024-03-02T14:52:33;24.60;;;4.10;;
4462;SDS011;2244;50.200;8.220;2024-03-02T14:55:01;26.60;;;4.50;;
4462;SDS011;2244;50.200;8.220;2024-03-02T14:57:30;24.73;;;3.53;;
4462;SDS011;2244;50.200;8.220;2024-03-02T14:59:58;27.27;;;3.27;;
4462;SDS011;2244;50.200;8.220;2024-03-02T15:02:25;25.37;;;4.30;;
4462;SDS011;2244;50.200;8.220;2024-03-02T15:04:55;32.13;;;8.37;;
4462;SDS011;2244;50.200;8.220;2024-03-02T15:07:22;36.80;;;11.00;;
4462;SDS011;2244;50.200;8.220;2024-03-02T15:09:50;31.17;;;7.07;;
4462;SDS011;2244;50.200;8.220;2024-03-02T15:12:18;25.40;;;4.30;;
4462;SDS011;2244;50.200;8.220;2024-03-02T15:14:45;25.20;;;4.30;;
4462;SDS011;2244;50.200;8.220;2024-03-02T15:17:14;24.50;;;3.80;;
4462;SDS011;2244;50.200;8.220;2024-03-02T15:19:42;24.00;;;3.20;;